createdAt,value
2023-01-07T19:58:44.179Z,95.98
2023-01-07T19:59:44.031Z,96.08
2023-01-07T20:01:48.076Z,95.94
2023-01-07T20:02:47.921Z,96.22
2023-01-07T20:04:51.794Z,96.17
2023-01-07T20:05:51.750Z,96.08
2023-01-07T20:07:56.157Z,96.22
2023-01-07T20:08:56.113Z,96.08
2023-01-07T20:11:00.011Z,96.13
2023-01-07T20:11:59.970Z,96.13
2023-01-07T20:14:03.964Z,96.22
2023-01-07T20:15:03.818Z,96.22
2023-01-07T20:17:07.725Z,96.61
2023-01-07T20:18:07.668Z,96.32
2023-01-07T20:20:11.592Z,96.13
2023-01-07T20:21:11.529Z,96.22
2023-01-07T20:23:15.431Z,95.94
2023-01-07T20:24:15.378Z,96.13
2023-01-07T20:26:19.289Z,96.41
2023-01-07T20:27:19.239Z,96.22
2023-01-07T20:29:12.287Z,95.94
2023-01-07T20:30:12.134Z,96.22
2023-01-07T20:32:17.361Z,96.32
2023-01-07T20:33:15.996Z,96.22
2023-01-07T20:35:19.902Z,96.32
2023-01-07T20:36:19.842Z,96.22
2023-01-07T20:38:23.739Z,96.70
2023-01-07T20:39:23.704Z,96.89
2023-01-07T20:41:27.619Z,97.08
2023-01-07T20:42:27.560Z,96.41
2023-01-07T20:44:31.562Z,96.22
2023-01-07T20:45:31.444Z,96.61
2023-01-07T20:47:35.326Z,96.13
2023-01-07T20:48:35.268Z,96.03
2023-01-07T20:50:39.172Z,96.66
2023-01-07T20:51:39.129Z,96.66
2023-01-07T20:53:43.035Z,95.98
2023-01-07T20:54:42.990Z,96.27
2023-01-07T20:56:46.890Z,96.27
2023-01-07T20:57:46.835Z,96.56
2023-01-07T20:59:39.665Z,96.66
2023-01-07T21:00:41.052Z,95.98
2023-01-07T21:02:43.608Z,95.89
2023-01-07T21:03:43.476Z,96.17
2023-01-07T21:05:47.398Z,96.56
2023-01-07T21:06:47.336Z,96.17
2023-01-07T21:08:51.236Z,96.27
2023-01-07T21:09:51.189Z,96.27
2023-01-07T21:11:55.109Z,96.66
2023-01-07T21:12:55.050Z,96.37
2023-01-07T21:14:59.032Z,97.13
2023-01-07T21:15:58.904Z,97.13
2023-01-07T21:18:02.829Z,96.37
2023-01-07T21:19:02.766Z,96.84
2023-01-07T21:21:06.667Z,96.66
2023-01-07T21:22:06.644Z,96.84
2023-01-07T21:24:10.564Z,96.84
2023-01-07T21:25:10.484Z,97.27
2023-01-07T21:27:14.398Z,97.32
2023-01-07T21:28:14.345Z,97.03
2023-01-07T21:30:18.349Z,97.80
2023-01-07T21:31:18.259Z,97.61
2023-01-07T21:33:22.101Z,97.17
2023-01-07T21:34:22.066Z,97.61
2023-01-07T21:36:25.981Z,97.80
2023-01-07T21:37:28.373Z,97.71
2023-01-07T21:39:18.739Z,98.13
2023-01-07T21:40:18.701Z,98.22
2023-01-07T21:42:22.603Z,98.13
2023-01-07T21:43:22.551Z,98.22
2023-01-07T21:45:26.557Z,98.27
2023-01-07T21:46:26.410Z,97.99
2023-01-07T21:48:30.310Z,98.13
2023-01-07T21:49:30.271Z,97.94
2023-01-07T21:51:34.175Z,98.13
2023-01-07T21:52:34.132Z,98.18
2023-01-07T21:54:38.037Z,97.99
2023-01-07T21:55:37.981Z,97.80
2023-01-07T21:57:41.885Z,97.89
2023-01-07T21:58:41.838Z,98.08
2023-01-07T22:00:45.900Z,98.18
2023-01-07T22:01:45.872Z,98.18
2023-01-07T22:03:49.858Z,98.18
2023-01-07T22:04:49.544Z,98.08
2023-01-07T22:06:53.441Z,98.37
2023-01-07T22:07:53.410Z,97.80
2023-01-07T22:09:57.319Z,98.47
2023-01-07T22:10:57.267Z,97.71
2023-01-07T22:13:01.151Z,97.99
2023-01-07T22:14:01.128Z,98.08
2023-01-07T22:16:05.226Z,98.61
2023-01-07T22:17:04.979Z,98.75
2023-01-07T22:18:57.831Z,98.66
2023-01-07T22:19:57.760Z,97.80
2023-01-07T22:22:01.684Z,98.56
2023-01-07T22:23:01.613Z,98.56
2023-01-07T22:25:05.511Z,98.37
2023-01-07T22:26:05.485Z,98.37
2023-01-07T22:28:09.394Z,98.56
2023-01-07T22:29:09.343Z,98.47
2023-01-07T22:31:13.384Z,97.80
2023-01-07T22:32:13.184Z,97.71
2023-01-07T22:34:17.091Z,98.75
2023-01-07T22:35:17.039Z,98.47
2023-01-07T22:37:20.968Z,98.66
2023-01-07T22:38:20.893Z,98.56
2023-01-07T22:40:24.797Z,98.56
2023-01-07T22:41:24.749Z,98.75
2023-01-07T22:43:28.652Z,98.37
2023-01-07T22:44:28.611Z,99.04
2023-01-07T22:46:32.651Z,98.94
2023-01-07T22:47:32.474Z,98.56
2023-01-07T22:49:25.284Z,98.94
2023-01-07T22:50:25.242Z,98.85
2023-01-07T22:52:29.177Z,98.47
2023-01-07T22:53:29.109Z,98.56
2023-01-07T22:55:33.020Z,99.13
2023-01-07T22:56:32.977Z,98.75
2023-01-07T22:58:36.886Z,98.94
2023-01-07T22:59:36.833Z,98.94
2023-01-07T23:01:40.848Z,98.94
2023-01-07T23:02:40.696Z,98.75
2023-01-07T23:04:44.595Z,98.56
2023-01-07T23:05:44.546Z,98.66
2023-01-07T23:07:48.443Z,98.66
2023-01-07T23:08:48.401Z,98.56
2023-01-07T23:10:52.317Z,98.94
2023-01-07T23:11:52.296Z,99.42
2023-01-07T23:13:56.160Z,99.42
2023-01-07T23:14:56.117Z,99.61
2023-01-07T23:17:00.150Z,99.42
2023-01-07T23:18:00.003Z,99.23
2023-01-07T23:20:03.915Z,99.42
2023-01-07T23:21:03.867Z,99.23
2023-01-07T23:23:07.790Z,98.94
2023-01-07T23:24:07.733Z,99.52
2023-01-07T23:26:11.613Z,99.32
2023-01-07T23:27:11.593Z,99.42
2023-01-07T23:29:04.415Z,99.32
2023-01-07T23:30:04.355Z,99.32
2023-01-07T23:32:08.362Z,99.13
2023-01-07T23:33:08.219Z,99.04
2023-01-07T23:35:12.120Z,99.13
2023-01-07T23:36:12.070Z,99.71
2023-01-07T23:38:15.963Z,99.90
2023-01-07T23:39:15.931Z,99.71
2023-01-07T23:41:19.833Z,99.52
2023-01-07T23:42:19.788Z,99.90
2023-01-07T23:44:23.675Z,99.32
2023-01-07T23:45:23.639Z,99.32
2023-01-07T23:47:27.650Z,99.32
2023-01-07T23:48:27.526Z,99.61
2023-01-07T23:50:31.402Z,99.13
2023-01-07T23:51:31.356Z,99.52
2023-01-07T23:53:35.317Z,99.52
2023-01-07T23:54:35.262Z,99.52
2023-01-07T23:56:39.120Z,99.52
2023-01-07T23:57:39.069Z,99.52
2023-01-07T23:59:31.922Z,99.52
